sensor_id;sensor_type;location;lat;lon;timestamp;pressure;altitude;pressure_sealevel;temperature;humidity
61537;BME280;48695;53.480;-6.300;2024-03-02T00:02:16;98670.66;;;5.69;79.56
61537;BME280;48695;53.480;-6.300;2024-03-02T00:04:44;98678.31;;;5.72;79.43
61537;BME280;48695;53.480;-6.300;2024-03-02T00:07:14;98670.88;;;5.63;79.90
61537;BME280;48695;53.480;-6.300;2024-03-02T00:09:39;98671.72;;;5.63;79.74
61537;BME280;48695;53.480;-6.300;2024-03-02T00:12:05;98669.16;;;5.62;79.96
61537;BME280;48695;53.480;-6.300;2024-03-02T00:14:31;98651.72;;;5.43;79.55
61537;BME280;48695;53.480;-6.300;2024-03-02T00:16:57;98677.16;;;5.56;79.38
61537;BME280;48695;53.480;-6.300;2024-03-02T00:19:22;98677.31;;;5.51;79.70
61537;BME280;48695;53.480;-6.300;2024-03-02T00:21:48;98680.88;;;5.49;79.33
61537;BME280;48695;53.480;-6.300;2024-03-02T00:24:32;98660.00;;;5.28;79.41
61537;BME280;48695;53.480;-6.300;2024-03-02T00:26:59;98685.44;;;5.40;79.55
61537;BME280;48695;53.480;-6.300;2024-03-02T00:29:24;98683.84;;;5.36;79.28
61537;BME280;48695;53.480;-6.300;2024-03-02T00:31:50;98689.16;;;5.33;79.42
61537;BME280;48695;53.480;-6.300;2024-03-02T00:34:17;98685.75;;;5.31;79.46
61537;BME280;48695;53.480;-6.300;2024-03-02T00:36:43;98688.50;;;5.27;79.08
61537;BME280;48695;53.480;-6.300;2024-03-02T00:39:12;98689.53;;;5.21;79.41
61537;BME280;48695;53.480;-6.300;2024-03-02T00:41:41;98677.09;;;5.07;79.58
61537;BME280;48695;53.480;-6.300;2024-03-02T00:44:12;98695.78;;;5.15;79.34
61537;BME280;48695;53.480;-6.300;2024-03-02T00:46:42;98696.75;;;5.13;79.66
61537;BME280;48695;53.480;-6.300;2024-03-02T00:49:12;98695.97;;;5.09;79.51
61537;BME280;48695;53.480;-6.300;2024-03-02T00:51:52;98705.56;;;5.06;79.27
61537;BME280;48695;53.480;-6.300;2024-03-02T00:54:27;98705.78;;;5.00;79.25
61537;BME280;48695;53.480;-6.300;2024-03-02T00:56:53;98687.38;;;4.82;79.55
61537;BME280;48695;53.480;-6.300;2024-03-02T00:59:21;98701.66;;;4.94;79.53
61537;BME280;48695;53.480;-6.300;2024-03-02T01:01:48;98703.47;;;4.90;79.21
61537;BME280;48695;53.480;-6.300;2024-03-02T01:04:14;98701.72;;;4.91;79.44
61537;BME280;48695;53.480;-6.300;2024-03-02T01:06:39;98701.84;;;4.88;79.50
61537;BME280;48695;53.480;-6.300;2024-03-02T01:09:04;98690.13;;;4.76;79.62
61537;BME280;48695;53.480;-6.300;2024-03-02T01:11:30;98701.09;;;4.84;79.45
61537;BME280;48695;53.480;-6.300;2024-03-02T01:13:55;98701.09;;;4.84;79.41
61537;BME280;48695;53.480;-6.300;2024-03-02T01:16:21;98697.72;;;4.82;79.74
61537;BME280;48695;53.480;-6.300;2024-03-02T01:18:46;98703.75;;;4.81;79.78
61537;BME280;48695;53.480;-6.300;2024-03-02T01:21:12;98701.44;;;4.74;79.51
61537;BME280;48695;53.480;-6.300;2024-03-02T01:23:38;98704.66;;;4.80;79.88
61537;BME280;48695;53.480;-6.300;2024-03-02T01:26:03;98703.81;;;4.80;79.68
61537;BME280;48695;53.480;-6.300;2024-03-02T01:28:29;98702.97;;;4.79;79.67
61537;BME280;48695;53.480;-6.300;2024-03-02T01:30:54;98705.56;;;4.79;79.92
61537;BME280;48695;53.480;-6.300;2024-03-02T01:33:20;98713.31;;;4.79;79.85
61537;BME280;48695;53.480;-6.300;2024-03-02T01:35:46;98714.22;;;4.78;79.89
61537;BME280;48695;53.480;-6.300;2024-03-02T01:38:12;98712.53;;;4.77;79.48
61537;BME280;48695;53.480;-6.300;2024-03-02T01:40:38;98718.56;;;4.76;79.72
61537;BME280;48695;53.480;-6.300;2024-03-02T01:43:04;98716.09;;;4.73;79.38
61537;BME280;48695;53.480;-6.300;2024-03-02T01:45:30;98710.88;;;4.75;79.44
61537;BME280;48695;53.480;-6.300;2024-03-02T01:47:56;98713.50;;;4.73;79.89
61537;BME280;48695;53.480;-6.300;2024-03-02T01:50:29;98700.66;;;4.72;79.50
61537;BME280;48695;53.480;-6.300;2024-03-02T01:52:58;98707.59;;;4.69;79.47
61537;BME280;48695;53.480;-6.300;2024-03-02T01:55:23;98710.31;;;4.65;79.40
61537;BME280;48695;53.480;-6.300;2024-03-02T01:57:49;98712.94;;;4.63;79.58
61537;BME280;48695;53.480;-6.300;2024-03-02T02:00:21;98721.59;;;4.62;79.56
61537;BME280;48695;53.480;-6.300;2024-03-02T02:02:48;98720.84;;;4.59;79.18
61537;BME280;48695;53.480;-6.300;2024-03-02T02:05:14;98714.91;;;4.55;79.62
61537;BME280;48695;53.480;-6.300;2024-03-02T02:07:40;98722.72;;;4.54;79.46
61537;BME280;48695;53.480;-6.300;2024-03-02T02:10:07;98717.63;;;4.51;79.09
61537;BME280;48695;53.480;-6.300;2024-03-02T02:12:32;98710.78;;;4.50;79.07
61537;BME280;48695;53.480;-6.300;2024-03-02T02:14:58;98707.59;;;4.41;79.52
61537;BME280;48695;53.480;-6.300;2024-03-02T02:17:24;98718.66;;;4.45;79.19
61537;BME280;48695;53.480;-6.300;2024-03-02T02:19:49;98713.53;;;4.43;79.34
61537;BME280;48695;53.480;-6.300;2024-03-02T02:22:14;98711.00;;;4.42;79.23
61537;BME280;48695;53.480;-6.300;2024-03-02T02:24:40;98699.13;;;4.36;79.34
61537;BME280;48695;53.480;-6.300;2024-03-02T02:27:07;98704.19;;;4.39;79.09
61537;BME280;48695;53.480;-6.300;2024-03-02T02:29:33;98706.81;;;4.38;79.10
61537;BME280;48695;53.480;-6.300;2024-03-02T02:31:58;98699.13;;;4.36;79.50
61537;BME280;48695;53.480;-6.300;2024-03-02T02:34:23;98679.78;;;4.20;79.53
61537;BME280;48695;53.480;-6.300;2024-03-02T02:36:49;98706.91;;;4.35;79.26
61537;BME280;48695;53.480;-6.300;2024-03-02T02:39:16;98707.81;;;4.34;79.16
61537;BME280;48695;53.480;-6.300;2024-03-02T02:41:42;98702.69;;;4.32;79.50
61537;BME280;48695;53.480;-6.300;2024-03-02T02:44:07;98703.59;;;4.31;79.46
61537;BME280;48695;53.480;-6.300;2024-03-02T02:46:33;98712.19;;;4.30;79.35
61537;BME280;48695;53.480;-6.300;2024-03-02T02:48:58;98714.06;;;4.27;79.56
61537;BME280;48695;53.480;-6.300;2024-03-02T02:51:24;98716.66;;;4.25;79.38
61537;BME280;48695;53.480;-6.300;2024-03-02T02:53:51;98692.28;;;4.06;79.37
61537;BME280;48695;53.480;-6.300;2024-03-02T02:56:16;98715.03;;;4.23;79.81
61537;BME280;48695;53.480;-6.300;2024-03-02T02:58:42;98693.97;;;4.07;79.69
61537;BME280;48695;53.480;-6.300;2024-03-02T03:01:07;98715.94;;;4.20;79.66
61537;BME280;48695;53.480;-6.300;2024-03-02T03:03:33;98720.38;;;4.16;79.71
61537;BME280;48695;53.480;-6.300;2024-03-02T03:05:59;98716.06;;;4.17;79.74
61537;BME280;48695;53.480;-6.300;2024-03-02T03:08:24;98708.56;;;4.08;79.75
61537;BME280;48695;53.480;-6.300;2024-03-02T03:10:50;98716.94;;;4.16;79.56
61537;BME280;48695;53.480;-6.300;2024-03-02T03:13:15;98715.22;;;4.15;79.77
61537;BME280;48695;53.480;-6.300;2024-03-02T03:15:41;98713.53;;;4.14;79.38
61537;BME280;48695;53.480;-6.300;2024-03-02T03:18:06;98718.72;;;4.14;79.37
61537;BME280;48695;53.480;-6.300;2024-03-02T03:20:36;98713.59;;;4.12;79.43
61537;BME280;48695;53.480;-6.300;2024-03-02T03:23:01;98715.34;;;4.12;79.63
61537;BME280;48695;53.480;-6.300;2024-03-02T03:25:27;98713.66;;;4.11;79.53
61537;BME280;48695;53.480;-6.300;2024-03-02T03:27:52;98717.09;;;4.10;79.67
61537;BME280;48695;53.480;-6.300;2024-03-02T03:30:18;98713.72;;;4.08;79.23
61537;BME280;48695;53.480;-6.300;2024-03-02T03:32:43;98715.41;;;4.09;79.45
61537;BME280;48695;53.480;-6.300;2024-03-02T03:35:09;98714.63;;;4.07;79.74
61537;BME280;48695;53.480;-6.300;2024-03-02T03:37:34;98704.63;;;3.95;79.53
61537;BME280;48695;53.480;-6.300;2024-03-02T03:40:01;98720.56;;;4.09;79.51
61537;BME280;48695;53.480;-6.300;2024-03-02T03:42:28;98720.63;;;4.07;79.40
61537;BME280;48695;53.480;-6.300;2024-03-02T03:44:53;98723.25;;;4.06;79.64
61537;BME280;48695;53.480;-6.300;2024-03-02T03:47:18;98720.69;;;4.06;79.46
61537;BME280;48695;53.480;-6.300;2024-03-02T03:49:45;98723.25;;;4.06;79.56
61537;BME280;48695;53.480;-6.300;2024-03-02T03:52:10;98717.22;;;4.05;79.22
61537;BME280;48695;53.480;-6.300;2024-03-02T03:54:36;98716.44;;;4.03;79.85
61537;BME280;48695;53.480;-6.300;2024-03-02T03:57:03;98713.91;;;4.02;79.49
61537;BME280;48695;53.480;-6.300;2024-03-02T03:59:29;98710.47;;;4.01;79.33
61537;BME280;48695;53.480;-6.300;2024-03-02T04:01:54;98712.22;;;4.01;79.78
61537;BME280;48695;53.480;-6.300;2024-03-02T04:04:19;98718.28;;;3.98;79.55
61537;BME280;48695;53.480;-6.300;2024-03-02T04:06:45;98721.78;;;3.97;79.86
61537;BME280;48695;53.480;-6.300;2024-03-02T04:09:10;98712.47;;;3.90;80.07
61537;BME280;48695;53.480;-6.300;2024-03-02T04:11:36;98716.66;;;3.96;79.66
61537;BME280;48695;53.480;-6.300;2024-03-02T04:14:01;98717.53;;;3.95;79.69
61537;BME280;48695;53.480;-6.300;2024-03-02T04:16:27;98720.16;;;3.93;79.87
61537;BME280;48695;53.480;-6.300;2024-03-02T04:18:54;98718.53;;;3.90;79.63
61537;BME280;48695;53.480;-6.300;2024-03-02T04:21:19;98720.22;;;3.90;79.80
61537;BME280;48695;53.480;-6.300;2024-03-02T04:23:45;98710.84;;;3.87;79.61
61537;BME280;48695;53.480;-6.300;2024-03-02T04:26:10;98717.75;;;3.87;79.98
61537;BME280;48695;53.480;-6.300;2024-03-02T04:28:36;98713.47;;;3.86;79.92
61537;BME280;48695;53.480;-6.300;2024-03-02T04:31:01;98722.97;;;3.85;79.63
61537;BME280;48695;53.480;-6.300;2024-03-02T04:33:27;98721.25;;;3.84;79.64
61537;BME280;48695;53.480;-6.300;2024-03-02T04:35:52;98724.72;;;3.83;79.83
61537;BME280;48695;53.480;-6.300;2024-03-02T04:38:17;98719.66;;;3.80;79.88
61537;BME280;48695;53.480;-6.300;2024-03-02T04:40:43;98729.88;;;3.83;80.04
61537;BME280;48695;53.480;-6.300;2024-03-02T04:43:08;98727.34;;;3.82;80.01
61537;BME280;48695;53.480;-6.300;2024-03-02T04:45:34;98732.53;;;3.82;79.90
61537;BME280;48695;53.480;-6.300;2024-03-02T04:48:00;98706.28;;;3.66;79.94
61537;BME280;48695;53.480;-6.300;2024-03-02T04:50:25;98724.81;;;3.80;80.10
61537;BME280;48695;53.480;-6.300;2024-03-02T04:52:51;98722.25;;;3.80;79.74
61537;BME280;48695;53.480;-6.300;2024-03-02T04:55:16;98730.00;;;3.80;79.76
61537;BME280;48695;53.480;-6.300;2024-03-02T04:57:41;98724.81;;;3.80;80.10
61537;BME280;48695;53.480;-6.300;2024-03-02T05:00:07;98725.69;;;3.79;79.93
61537;BME280;48695;53.480;-6.300;2024-03-02T05:02:34;98733.44;;;3.79;79.82
61537;BME280;48695;53.480;-6.300;2024-03-02T05:04:59;98735.19;;;3.79;79.67
61537;BME280;48695;53.480;-6.300;2024-03-02T05:07:25;98732.63;;;3.77;79.78
61537;BME280;48695;53.480;-6.300;2024-03-02T05:09:50;98735.22;;;3.77;79.77
61537;BME280;48695;53.480;-6.300;2024-03-02T05:12:16;98735.22;;;3.77;80.01
61537;BME280;48695;53.480;-6.300;2024-03-02T05:14:41;98740.38;;;3.77;80.09
61537;BME280;48695;53.480;-6.300;2024-03-02T05:17:06;98736.97;;;3.77;80.02
61537;BME280;48695;53.480;-6.300;2024-03-02T05:19:32;98730.97;;;3.75;79.80
61537;BME280;48695;53.480;-6.300;2024-03-02T05:21:57;98735.22;;;3.77;79.91
61537;BME280;48695;53.480;-6.300;2024-03-02T05:24:23;98736.13;;;3.75;79.97
61537;BME280;48695;53.480;-6.300;2024-03-02T05:26:48;98733.53;;;3.76;80.07
61537;BME280;48695;53.480;-6.300;2024-03-02T05:29:14;98739.53;;;3.77;79.65
61537;BME280;48695;53.480;-6.300;2024-03-02T05:31:40;98718.41;;;3.62;79.93
61537;BME280;48695;53.480;-6.300;2024-03-02T05:34:05;98726.75;;;3.72;80.04
61537;BME280;48695;53.480;-6.300;2024-03-02T05:36:31;98737.00;;;3.75;79.84
61537;BME280;48695;53.480;-6.300;2024-03-02T05:38:57;98743.03;;;3.76;79.75
61537;BME280;48695;53.480;-6.300;2024-03-02T05:41:22;98707.34;;;3.57;79.90
61537;BME280;48695;53.480;-6.300;2024-03-02T05:43:48;98734.50;;;3.72;80.05
61537;BME280;48695;53.480;-6.300;2024-03-02T05:46:14;98735.28;;;3.74;79.95
61537;BME280;48695;53.480;-6.300;2024-03-02T05:48:39;98743.03;;;3.74;79.56
61537;BME280;48695;53.480;-6.300;2024-03-02T05:51:04;98738.75;;;3.73;79.80
61537;BME280;48695;53.480;-6.300;2024-03-02T05:53:30;98734.56;;;3.69;79.80
61537;BME280;48695;53.480;-6.300;2024-03-02T05:55:55;98736.19;;;3.73;79.64
61537;BME280;48695;53.480;-6.300;2024-03-02T05:58:21;98714.13;;;3.61;79.84
61537;BME280;48695;53.480;-6.300;2024-03-02T06:01:03;98733.59;;;3.73;79.61
61537;BME280;48695;53.480;-6.300;2024-03-02T06:03:30;98735.38;;;3.71;79.80
61537;BME280;48695;53.480;-6.300;2024-03-02T06:05:55;98731.91;;;3.72;79.67
61537;BME280;48695;53.480;-6.300;2024-03-02T06:08:20;98733.66;;;3.72;79.71
61537;BME280;48695;53.480;-6.300;2024-03-02T06:10:46;98735.38;;;3.71;79.46
61537;BME280;48695;53.480;-6.300;2024-03-02T06:13:11;98730.31;;;3.68;79.63
61537;BME280;48695;53.480;-6.300;2024-03-02T06:15:37;98736.25;;;3.72;79.32
61537;BME280;48695;53.480;-6.300;2024-03-02T06:18:02;98742.25;;;3.72;79.52
61537;BME280;48695;53.480;-6.300;2024-03-02T06:20:28;98745.72;;;3.71;79.33
61537;BME280;48695;53.480;-6.300;2024-03-02T06:22:55;98749.91;;;3.75;79.07
61537;BME280;48695;53.480;-6.300;2024-03-02T06:25:21;98748.31;;;3.71;79.63
61537;BME280;48695;53.480;-6.300;2024-03-02T06:27:46;98756.03;;;3.71;79.67
61537;BME280;48695;53.480;-6.300;2024-03-02T06:30:12;98753.47;;;3.70;79.37
61537;BME280;48695;53.480;-6.300;2024-03-02T06:32:37;98758.63;;;3.70;79.33
61537;BME280;48695;53.480;-6.300;2024-03-02T06:35:03;98755.31;;;3.66;79.49
61537;BME280;48695;53.480;-6.300;2024-03-02T06:37:30;98767.31;;;3.67;79.89
61537;BME280;48695;53.480;-6.300;2024-03-02T06:39:55;98763.06;;;3.66;79.31
61537;BME280;48695;53.480;-6.300;2024-03-02T06:42:20;98757.97;;;3.63;79.76
61537;BME280;48695;53.480;-6.300;2024-03-02T06:44:46;98763.94;;;3.65;79.43
61537;BME280;48695;53.480;-6.300;2024-03-02T06:47:11;98771.69;;;3.65;79.54
61537;BME280;48695;53.480;-6.300;2024-03-02T06:49:37;98769.97;;;3.64;79.55
61537;BME280;48695;53.480;-6.300;2024-03-02T06:52:02;98769.97;;;3.64;79.46
61537;BME280;48695;53.480;-6.300;2024-03-02T06:54:28;98772.59;;;3.62;79.81
61537;BME280;48695;53.480;-6.300;2024-03-02T06:56:53;98770.06;;;3.61;79.49
61537;BME280;48695;53.480;-6.300;2024-03-02T06:59:19;98782.09;;;3.62;79.59
61537;BME280;48695;53.480;-6.300;2024-03-02T07:01:44;98780.41;;;3.61;79.44
61537;BME280;48695;53.480;-6.300;2024-03-02T07:04:10;98791.63;;;3.60;79.77
61537;BME280;48695;53.480;-6.300;2024-03-02T07:06:35;98781.28;;;3.60;79.66
61537;BME280;48695;53.480;-6.300;2024-03-02T07:09:00;98791.63;;;3.58;79.56
61537;BME280;48695;53.480;-6.300;2024-03-02T07:11:26;98790.78;;;3.58;79.73
61537;BME280;48695;53.480;-6.300;2024-03-02T07:13:51;98789.09;;;3.57;79.50
61537;BME280;48695;53.480;-6.300;2024-03-02T07:16:16;98789.16;;;3.54;79.43
61537;BME280;48695;53.480;-6.300;2024-03-02T07:18:58;98797.72;;;3.56;79.77
61537;BME280;48695;53.480;-6.300;2024-03-02T07:21:24;98790.88;;;3.55;79.73
61537;BME280;48695;53.480;-6.300;2024-03-02T07:23:50;98789.16;;;3.54;79.92
61537;BME280;48695;53.480;-6.300;2024-03-02T07:26:16;98789.16;;;3.54;79.46
61537;BME280;48695;53.480;-6.300;2024-03-02T07:28:44;98777.38;;;3.44;79.95
61537;BME280;48695;53.480;-6.300;2024-03-02T07:31:09;98786.75;;;3.48;79.89
61537;BME280;48695;53.480;-6.300;2024-03-02T07:33:35;98800.38;;;3.53;79.80
61537;BME280;48695;53.480;-6.300;2024-03-02T07:36:00;98785.00;;;3.48;79.86
61537;BME280;48695;53.480;-6.300;2024-03-02T07:38:27;98755.31;;;3.32;79.69
61537;BME280;48695;53.480;-6.300;2024-03-02T07:40:53;98792.63;;;3.53;79.54
61537;BME280;48695;53.480;-6.300;2024-03-02T07:43:20;98792.69;;;3.51;79.75
61537;BME280;48695;53.480;-6.300;2024-03-02T07:45:46;98777.47;;;3.41;79.65
61537;BME280;48695;53.480;-6.300;2024-03-02T07:48:11;98805.47;;;3.56;79.93
61537;BME280;48695;53.480;-6.300;2024-03-02T07:50:37;98769.75;;;3.39;79.94
61537;BME280;48695;53.480;-6.300;2024-03-02T07:53:06;98774.00;;;3.42;80.07
61537;BME280;48695;53.480;-6.300;2024-03-02T07:55:33;98768.75;;;3.45;79.62
61537;BME280;48695;53.480;-6.300;2024-03-02T07:58:00;98800.16;;;3.62;79.73
61537;BME280;48695;53.480;-6.300;2024-03-02T08:00:25;98798.34;;;3.66;79.60
61537;BME280;48695;53.480;-6.300;2024-03-02T08:02:52;98761.09;;;3.42;79.62
61537;BME280;48695;53.480;-6.300;2024-03-02T08:05:18;98774.53;;;3.54;79.95
61537;BME280;48695;53.480;-6.300;2024-03-02T08:07:47;98805.00;;;3.74;79.88
61537;BME280;48695;53.480;-6.300;2024-03-02T08:10:13;98799.03;;;3.72;80.19
61537;BME280;48695;53.480;-6.300;2024-03-02T08:12:39;98807.44;;;3.80;79.66
61537;BME280;48695;53.480;-6.300;2024-03-02T08:15:05;98772.59;;;3.62;80.15
61537;BME280;48695;53.480;-6.300;2024-03-02T08:17:30;98807.19;;;3.89;79.51
61537;BME280;48695;53.480;-6.300;2024-03-02T08:19:56;98807.03;;;3.96;79.81
61537;BME280;48695;53.480;-6.300;2024-03-02T08:22:22;98810.34;;;4.01;79.45
61537;BME280;48695;53.480;-6.300;2024-03-02T08:24:48;98810.19;;;4.07;79.91
61537;BME280;48695;53.480;-6.300;2024-03-02T08:27:13;98814.34;;;4.12;79.53
61537;BME280;48695;53.480;-6.300;2024-03-02T08:29:40;98804.84;;;4.13;79.34
61537;BME280;48695;53.480;-6.300;2024-03-02T08:32:06;98811.38;;;4.26;79.39
61537;BME280;48695;53.480;-6.300;2024-03-02T08:34:32;98811.94;;;4.37;79.39
61537;BME280;48695;53.480;-6.300;2024-03-02T08:36:59;98812.47;;;4.49;79.46
61537;BME280;48695;53.480;-6.300;2024-03-02T08:39:24;98785.84;;;4.47;79.06
61537;BME280;48695;53.480;-6.300;2024-03-02T08:41:50;98807.44;;;4.74;79.42
61537;BME280;48695;53.480;-6.300;2024-03-02T08:44:16;98782.50;;;4.71;79.07
61537;BME280;48695;53.480;-6.300;2024-03-02T08:46:41;98810.94;;;5.01;78.87
61537;BME280;48695;53.480;-6.300;2024-03-02T08:49:07;98816.47;;;5.16;78.82
61537;BME280;48695;53.480;-6.300;2024-03-02T08:51:33;98803.03;;;5.33;78.48
61537;BME280;48695;53.480;-6.300;2024-03-02T08:53:59;98806.75;;;5.51;77.95
61537;BME280;48695;53.480;-6.300;2024-03-02T08:56:25;98777.44;;;5.51;77.79
61537;BME280;48695;53.480;-6.300;2024-03-02T08:58:51;98805.38;;;5.94;77.97
61537;BME280;48695;53.480;-6.300;2024-03-02T09:01:17;98806.31;;;6.16;77.30
61537;BME280;48695;53.480;-6.300;2024-03-02T09:03:43;98809.03;;;6.37;77.33
61537;BME280;48695;53.480;-6.300;2024-03-02T09:06:10;98812.66;;;6.56;76.74
61537;BME280;48695;53.480;-6.300;2024-03-02T09:08:35;98809.50;;;6.71;76.50
61537;BME280;48695;53.480;-6.300;2024-03-02T09:11:04;98804.69;;;6.84;76.32
61537;BME280;48695;53.480;-6.300;2024-03-02T09:13:30;98802.66;;;6.92;76.18
61537;BME280;48695;53.480;-6.300;2024-03-02T09:15:56;98810.09;;;7.01;76.12
61537;BME280;48695;53.480;-6.300;2024-03-02T09:18:21;98808.84;;;7.12;75.78
61537;BME280;48695;53.480;-6.300;2024-03-02T09:20:47;98774.34;;;7.08;75.66
61537;BME280;48695;53.480;-6.300;2024-03-02T09:23:12;98813.75;;;7.40;75.33
61537;BME280;48695;53.480;-6.300;2024-03-02T09:25:38;98815.81;;;7.53;75.04
61537;BME280;48695;53.480;-6.300;2024-03-02T09:28:03;98826.50;;;7.68;75.17
61537;BME280;48695;53.480;-6.300;2024-03-02T09:30:29;98773.41;;;7.53;74.61
61537;BME280;48695;53.480;-6.300;2024-03-02T09:32:54;98824.56;;;7.93;74.48
61537;BME280;48695;53.480;-6.300;2024-03-02T09:35:19;98824.91;;;8.06;74.07
61537;BME280;48695;53.480;-6.300;2024-03-02T09:37:45;98823.38;;;8.21;74.26
61537;BME280;48695;53.480;-6.300;2024-03-02T09:40:11;98816.69;;;8.36;74.06
61537;BME280;48695;53.480;-6.300;2024-03-02T09:42:37;98795.66;;;8.42;73.75
61537;BME280;48695;53.480;-6.300;2024-03-02T09:45:03;98817.91;;;8.68;73.28
61537;BME280;48695;53.480;-6.300;2024-03-02T09:47:28;98811.16;;;8.82;73.24
61537;BME280;48695;53.480;-6.300;2024-03-02T09:49:54;98810.28;;;9.01;72.71
61537;BME280;48695;53.480;-6.300;2024-03-02T09:52:22;98803.22;;;9.22;72.91
61537;BME280;48695;53.480;-6.300;2024-03-02T09:54:47;98804.03;;;9.41;72.56
61537;BME280;48695;53.480;-6.300;2024-03-02T09:57:14;98797.94;;;9.59;72.41
61537;BME280;48695;53.480;-6.300;2024-03-02T09:59:39;98803.78;;;9.82;72.05
61537;BME280;48695;53.480;-6.300;2024-03-02T10:02:05;98799.63;;;9.95;71.90
61537;BME280;48695;53.480;-6.300;2024-03-02T10:04:32;98812.97;;;10.24;71.58
61537;BME280;48695;53.480;-6.300;2024-03-02T10:07:18;98806.25;;;10.53;72.41
61537;BME280;48695;53.480;-6.300;2024-03-02T10:09:45;98807.38;;;10.64;70.65
61537;BME280;48695;53.480;-6.300;2024-03-02T10:12:11;98806.81;;;10.91;72.75
61537;BME280;48695;53.480;-6.300;2024-03-02T10:14:37;98787.25;;;10.82;70.56
61537;BME280;48695;53.480;-6.300;2024-03-02T10:17:04;98810.38;;;11.06;70.55
61537;BME280;48695;53.480;-6.300;2024-03-02T10:19:30;98794.50;;;11.09;70.05
61537;BME280;48695;53.480;-6.300;2024-03-02T10:22:01;98804.69;;;11.13;69.64
61537;BME280;48695;53.480;-6.300;2024-03-02T10:24:35;98805.47;;;11.15;70.10
61537;BME280;48695;53.480;-6.300;2024-03-02T10:27:06;98805.19;;;11.04;70.23
61537;BME280;48695;53.480;-6.300;2024-03-02T10:29:32;98806.22;;;11.02;70.19
61537;BME280;48695;53.480;-6.300;2024-03-02T10:31:57;98810.66;;;11.00;70.55
61537;BME280;48695;53.480;-6.300;2024-03-02T10:34:24;98779.03;;;10.90;70.79
61537;BME280;48695;53.480;-6.300;2024-03-02T10:36:50;98799.56;;;11.12;70.76
61537;BME280;48695;53.480;-6.300;2024-03-02T10:39:17;98803.84;;;11.29;70.75
61537;BME280;48695;53.480;-6.300;2024-03-02T10:41:43;98773.75;;;11.37;70.54
61537;BME280;48695;53.480;-6.300;2024-03-02T10:44:10;98792.56;;;11.74;70.39
61537;BME280;48695;53.480;-6.300;2024-03-02T10:46:37;98801.72;;;11.97;69.69
61537;BME280;48695;53.480;-6.300;2024-03-02T10:49:04;98801.19;;;12.20;69.05
61537;BME280;48695;53.480;-6.300;2024-03-02T10:51:32;98800.34;;;12.34;69.07
61537;BME280;48695;53.480;-6.300;2024-03-02T10:54:01;98802.34;;;12.59;71.69
61537;BME280;48695;53.480;-6.300;2024-03-02T10:56:40;98804.28;;;12.70;70.32
61537;BME280;48695;53.480;-6.300;2024-03-02T10:59:33;98796.53;;;12.83;69.46
61537;BME280;48695;53.480;-6.300;2024-03-02T11:02:00;98807.47;;;12.89;67.97
61537;BME280;48695;53.480;-6.300;2024-03-02T11:04:27;98805.66;;;13.04;67.86
61537;BME280;48695;53.480;-6.300;2024-03-02T11:07:00;98805.44;;;13.21;68.50
61537;BME280;48695;53.480;-6.300;2024-03-02T11:09:28;98797.09;;;13.29;67.18
61537;BME280;48695;53.480;-6.300;2024-03-02T11:12:23;98801.78;;;13.51;67.67
61537;BME280;48695;53.480;-6.300;2024-03-02T11:14:51;98807.00;;;13.65;67.06
61537;BME280;48695;53.480;-6.300;2024-03-02T11:17:19;98807.47;;;13.85;66.87
61537;BME280;48695;53.480;-6.300;2024-03-02T11:19:46;98806.03;;;14.06;66.34
61537;BME280;48695;53.480;-6.300;2024-03-02T11:22:12;98792.59;;;14.23;66.30
61537;BME280;48695;53.480;-6.300;2024-03-02T11:24:51;98798.81;;;14.48;66.02
61537;BME280;48695;53.480;-6.300;2024-03-02T11:33:01;98799.09;;;15.18;64.88
61537;BME280;48695;53.480;-6.300;2024-03-02T11:35:36;98796.31;;;15.32;63.79
61537;BME280;48695;53.480;-6.300;2024-03-02T11:38:06;98799.72;;;15.46;63.98
61537;BME280;48695;53.480;-6.300;2024-03-02T11:40:32;98769.78;;;15.36;63.99
61537;BME280;48695;53.480;-6.300;2024-03-02T11:42:59;98789.88;;;15.61;64.03
61537;BME280;48695;53.480;-6.300;2024-03-02T11:45:26;98795.31;;;15.70;64.42
61537;BME280;48695;53.480;-6.300;2024-03-02T11:47:58;98789.06;;;15.95;64.86
61537;BME280;48695;53.480;-6.300;2024-03-02T11:50:33;98793.31;;;16.20;65.39
61537;BME280;48695;53.480;-6.300;2024-03-02T11:53:00;98789.84;;;16.31;62.09
61537;BME280;48695;53.480;-6.300;2024-03-02T11:55:26;98792.88;;;16.49;63.23
61537;BME280;48695;53.480;-6.300;2024-03-02T11:57:54;98794.13;;;16.78;63.70
61537;BME280;48695;53.480;-6.300;2024-03-02T12:00:20;98789.53;;;16.92;62.23
61537;BME280;48695;53.480;-6.300;2024-03-02T12:02:46;98771.22;;;16.90;62.34
61537;BME280;48695;53.480;-6.300;2024-03-02T12:05:15;98786.75;;;17.16;62.05
61537;BME280;48695;53.480;-6.300;2024-03-02T12:07:42;98781.31;;;17.28;62.71
61537;BME280;48695;53.480;-6.300;2024-03-02T12:10:08;98786.34;;;17.31;61.82
61537;BME280;48695;53.480;-6.300;2024-03-02T12:12:34;98776.50;;;17.33;61.72
61537;BME280;48695;53.480;-6.300;2024-03-02T12:14:59;98760.97;;;17.19;62.02
61537;BME280;48695;53.480;-6.300;2024-03-02T12:17:26;98783.94;;;17.28;62.58
61537;BME280;48695;53.480;-6.300;2024-03-02T12:19:51;98778.06;;;17.36;62.29
61537;BME280;48695;53.480;-6.300;2024-03-02T12:22:17;98780.09;;;17.44;60.77
61537;BME280;48695;53.480;-6.300;2024-03-02T12:24:43;98762.84;;;17.40;62.25
61537;BME280;48695;53.480;-6.300;2024-03-02T12:27:11;98766.63;;;17.47;61.61
61537;BME280;48695;53.480;-6.300;2024-03-02T12:29:38;98769.19;;;17.37;60.65
61537;BME280;48695;53.480;-6.300;2024-03-02T12:32:05;98728.16;;;17.01;63.55
61537;BME280;48695;53.480;-6.300;2024-03-02T12:34:30;98748.47;;;16.78;64.57
61537;BME280;48695;53.480;-6.300;2024-03-02T12:36:56;98764.84;;;16.70;63.85
61537;BME280;48695;53.480;-6.300;2024-03-02T12:39:22;98770.75;;;16.63;63.80
61537;BME280;48695;53.480;-6.300;2024-03-02T12:41:49;98768.81;;;16.53;65.55
61537;BME280;48695;53.480;-6.300;2024-03-02T12:44:16;98769.88;;;16.51;66.59
61537;BME280;48695;53.480;-6.300;2024-03-02T12:46:42;98755.50;;;16.55;66.29
61537;BME280;48695;53.480;-6.300;2024-03-02T12:49:09;98764.28;;;16.78;64.64
61537;BME280;48695;53.480;-6.300;2024-03-02T12:51:39;98750.47;;;16.97;64.80
61537;BME280;48695;53.480;-6.300;2024-03-02T12:54:08;98748.41;;;17.11;63.45
61537;BME280;48695;53.480;-6.300;2024-03-02T12:56:35;98739.50;;;17.12;64.15
61537;BME280;48695;53.480;-6.300;2024-03-02T12:59:01;98747.06;;;17.17;62.67
61537;BME280;48695;53.480;-6.300;2024-03-02T13:01:26;98743.94;;;17.12;63.46